Time;durP1;ratioP1;P1;durP2;ratioP2;P2;SDS_P1;SDS_P2;PMS_P1;PMS_P2;Temp;Humidity;BMP_temperature;BMP_pressure;BME280_temperature;BME280_humidity;BME280_pressure;Samples;Min_cycle;Max_cycle;Signal;HPM_P1;HPM_P2
2023/09/26 00:02:25;;;;;;;29.13;5.18;;;15.90;99.90;;;;;;5052095;28;20049;-58
2023/09/26 00:04:52;;;;;;;20.77;5.15;;;15.90;99.90;;;;;;5050418;28;20075;-58
2023/09/26 00:07:19;;;;;;;30.80;6.00;;;15.90;99.90;;;;;;5053642;28;20048;-60
2023/09/26 00:09:46;;;;;;;25.00;5.93;;;16.00;99.90;;;;;;5042620;28;20052;-58
2023/09/26 00:12:14;;;;;;;20.17;5.18;;;16.00;99.90;;;;;;5063413;28;20041;-58
2023/09/26 00:14:41;;;;;;;18.50;4.78;;;16.00;99.90;;;;;;5057323;28;20044;-55
2023/09/26 00:17:07;;;;;;;24.00;4.93;;;16.00;99.90;;;;;;5048634;28;20044;-58
2023/09/26 00:19:34;;;;;;;21.98;5.35;;;16.00;99.90;;;;;;5059073;28;20668;-60
2023/09/26 00:22:01;;;;;;;20.77;4.57;;;16.00;99.90;;;;;;5048450;28;20121;-57
2023/09/26 00:24:28;;;;;;;21.45;5.32;;;16.00;99.90;;;;;;5056117;28;20279;-58
2023/09/26 00:26:55;;;;;;;21.95;4.68;;;15.90;99.90;;;;;;5067405;28;20084;-57
2023/09/26 00:29:21;;;;;;;35.45;5.25;;;15.90;99.90;;;;;;5055039;28;20618;-56
2023/09/26 00:31:51;;;;;;;19.80;5.72;;;15.90;99.90;;;;;;5048625;28;20045;-54
2023/09/26 00:34:17;;;;;;;27.35;5.43;;;15.80;99.90;;;;;;5055366;28;20051;-56
2023/09/26 00:36:44;;;;;;;30.90;5.28;;;15.80;99.90;;;;;;5038774;28;20075;-58
2023/09/26 00:39:12;;;;;;;21.80;4.43;;;15.80;99.90;;;;;;5051111;28;20047;-57
2023/09/26 00:41:39;;;;;;;28.60;7.13;;;15.80;99.90;;;;;;5037134;28;20518;-59
2023/09/26 00:44:07;;;;;;;20.42;5.10;;;15.70;99.90;;;;;;5051303;28;20393;-58
2023/09/26 00:46:34;;;;;;;23.55;5.22;;;15.70;99.90;;;;;;4700276;28;9999961;-56
2023/09/26 00:49:01;;;;;;;18.75;4.75;;;15.70;99.90;;;;;;5048857;28;20049;-58
2023/09/26 00:51:27;;;;;;;23.88;3.72;;;15.60;99.90;;;;;;5043984;28;20051;-59
2023/09/26 00:53:55;;;;;;;20.08;5.13;;;15.60;99.90;;;;;;5044648;28;20106;-60
2023/09/26 00:56:23;;;;;;;23.40;4.63;;;15.50;99.90;;;;;;5036646;28;20520;-59
2023/09/26 00:58:49;;;;;;;29.23;4.90;;;15.50;99.90;;;;;;5051224;28;20098;-56
2023/09/26 01:01:17;;;;;;;18.95;4.10;;;15.50;99.90;;;;;;5034820;28;20118;-56
2023/09/26 01:03:44;;;;;;;19.05;4.45;;;15.50;99.90;;;;;;5066124;28;20051;-58
2023/09/26 01:06:11;;;;;;;18.63;4.35;;;15.50;99.90;;;;;;5042083;28;20131;-58
2023/09/26 01:08:38;;;;;;;15.98;4.00;;;15.40;99.90;;;;;;5069298;28;20375;-56
2023/09/26 01:11:05;;;;;;;18.33;3.58;;;15.50;99.90;;;;;;5062068;28;20076;-58
2023/09/26 01:13:32;;;;;;;16.77;3.78;;;15.40;99.90;;;;;;5050458;28;20642;-60
2023/09/26 01:16:07;;;;;;;22.10;4.45;;;15.40;99.90;;;;;;5057533;28;20051;-58
2023/09/26 01:18:34;;;;;;;20.45;4.18;;;15.50;99.90;;;;;;5044133;28;20045;-57
2023/09/26 01:21:01;;;;;;;25.63;5.78;;;15.50;99.90;;;;;;5054509;28;20550;-57
2023/09/26 01:23:27;;;;;;;20.13;4.50;;;15.40;99.90;;;;;;5058382;28;20081;-59
2023/09/26 01:25:55;;;;;;;21.55;4.80;;;15.50;99.90;;;;;;5021418;28;20049;-55
2023/09/26 01:28:22;;;;;;;26.70;4.80;;;15.50;99.90;;;;;;5051032;28;20415;-57
2023/09/26 01:30:49;;;;;;;18.17;3.53;;;15.50;99.90;;;;;;5053659;28;20135;-56
2023/09/26 01:33:16;;;;;;;20.25;4.90;;;15.50;99.90;;;;;;5050398;28;20114;-57
2023/09/26 01:35:43;;;;;;;21.20;4.05;;;15.50;99.90;;;;;;5051617;28;20087;-57
2023/09/26 01:38:10;;;;;;;20.80;5.55;;;15.50;99.90;;;;;;5066965;28;20056;-59
2023/09/26 01:40:37;;;;;;;21.48;5.28;;;15.50;99.90;;;;;;5064052;28;20099;-57
2023/09/26 01:43:04;;;;;;;23.30;3.92;;;15.50;99.90;;;;;;5055712;28;20045;-58
2023/09/26 01:45:31;;;;;;;21.10;4.60;;;15.50;99.90;;;;;;5054153;28;20099;-56
2023/09/26 01:47:59;;;;;;;17.77;3.92;;;15.40;99.90;;;;;;5062202;28;20511;-58
2023/09/26 01:50:26;;;;;;;19.35;3.92;;;15.40;99.90;;;;;;5065788;28;20040;-63
2023/09/26 01:52:53;;;;;;;19.58;3.65;;;15.50;99.90;;;;;;5060619;28;20106;-58
2023/09/26 01:55:20;;;;;;;16.63;4.32;;;15.40;99.90;;;;;;5050764;28;20055;-54
2023/09/26 01:57:48;;;;;;;14.73;3.53;;;15.50;99.90;;;;;;5061401;28;20067;-57
2023/09/26 02:00:15;;;;;;;16.92;4.72;;;15.50;99.90;;;;;;5048696;28;20067;-61
2023/09/26 02:02:44;;;;;;;20.35;4.50;;;15.50;99.90;;;;;;5063399;28;20068;-58
2023/09/26 02:05:12;;;;;;;22.60;3.60;;;15.40;99.90;;;;;;5049005;28;20044;-60
2023/09/26 02:07:39;;;;;;;18.10;4.20;;;15.40;99.90;;;;;;5056961;28;20450;-57
2023/09/26 02:10:06;;;;;;;17.02;4.43;;;15.40;99.90;;;;;;5051964;28;20493;-57
2023/09/26 02:12:35;;;;;;;13.40;3.63;;;15.30;99.90;;;;;;5035366;28;20076;-57
2023/09/26 02:15:04;;;;;;;22.13;5.47;;;15.30;99.90;;;;;;5049702;28;20053;-57
2023/09/26 02:17:33;;;;;;;19.52;4.65;;;15.30;99.90;;;;;;5053462;28;20435;-56
2023/09/26 02:20:02;;;;;;;19.10;3.95;;;15.30;99.90;;;;;;5030227;28;20049;-56
2023/09/26 02:22:28;;;;;;;18.23;4.50;;;15.30;99.90;;;;;;5054194;28;20036;-58
2023/09/26 02:24:56;;;;;;;22.00;3.97;;;15.20;99.90;;;;;;5067525;28;20109;-57
2023/09/26 02:27:23;;;;;;;22.00;4.65;;;15.30;99.90;;;;;;5063683;28;20052;-57
2023/09/26 02:29:51;;;;;;;19.42;3.85;;;15.20;99.90;;;;;;5053784;28;20090;-57
2023/09/26 02:32:18;;;;;;;19.40;4.57;;;15.30;99.90;;;;;;5055329;28;20048;-56
2023/09/26 02:34:45;;;;;;;18.95;4.28;;;15.20;99.90;;;;;;5037754;28;20417;-57
2023/09/26 02:37:11;;;;;;;23.25;4.43;;;15.20;99.90;;;;;;5053240;28;20461;-57
2023/09/26 02:39:38;;;;;;;14.70;3.90;;;15.30;99.90;;;;;;5060656;28;20106;-57
2023/09/26 02:42:05;;;;;;;21.42;3.95;;;15.30;99.90;;;;;;5064659;28;20099;-57
2023/09/26 02:44:32;;;;;;;21.42;4.32;;;15.30;99.90;;;;;;5060128;28;20114;-56
2023/09/26 02:46:59;;;;;;;25.83;3.85;;;15.30;99.90;;;;;;5069053;28;20059;-55
2023/09/26 02:49:25;;;;;;;17.30;4.10;;;15.40;99.90;;;;;;5061462;28;20052;-57
2023/09/26 02:51:52;;;;;;;21.27;4.15;;;15.40;99.90;;;;;;5049444;28;20124;-57
2023/09/26 02:54:19;;;;;;;17.60;4.70;;;15.40;99.90;;;;;;5052940;28;20083;-57
2023/09/26 02:56:46;;;;;;;22.10;4.60;;;15.40;99.90;;;;;;5048793;28;20041;-57
2023/09/26 02:59:13;;;;;;;26.67;4.80;;;15.40;99.90;;;;;;5060826;28;20048;-57
2023/09/26 03:01:40;;;;;;;14.13;3.60;;;15.40;99.90;;;;;;5049087;28;20056;-57
2023/09/26 03:04:06;;;;;;;17.30;4.22;;;15.40;99.90;;;;;;5061187;28;20083;-56
2023/09/26 03:06:33;;;;;;;16.77;4.20;;;15.40;99.90;;;;;;5048551;28;20045;-55
2023/09/26 03:09:00;;;;;;;15.30;4.68;;;15.40;99.90;;;;;;5052876;28;20070;-57
2023/09/26 03:11:27;;;;;;;20.02;4.30;;;15.40;99.90;;;;;;5066622;28;20045;-57
2023/09/26 03:13:54;;;;;;;18.98;3.65;;;15.40;99.90;;;;;;5058488;28;20049;-56
2023/09/26 03:16:21;;;;;;;18.67;4.65;;;15.40;99.90;;;;;;5064558;28;20055;-56
2023/09/26 03:18:52;;;;;;;14.27;3.88;;;15.40;99.90;;;;;;5057736;28;20515;-55
2023/09/26 03:21:19;;;;;;;20.70;3.63;;;15.40;99.90;;;;;;5045859;28;20067;-58
2023/09/26 03:23:46;;;;;;;22.70;4.13;;;15.50;99.90;;;;;;5056056;28;20056;-55
2023/09/26 03:26:13;;;;;;;27.83;5.22;;;15.40;99.90;;;;;;5060017;28;20118;-56
2023/09/26 03:28:39;;;;;;;17.73;4.05;;;15.50;99.90;;;;;;5061282;28;20060;-57
2023/09/26 03:31:08;;;;;;;26.90;5.28;;;15.40;99.90;;;;;;5053083;28;20037;-57
2023/09/26 03:33:35;;;;;;;16.17;3.83;;;15.50;99.90;;;;;;5032898;28;20539;-57
2023/09/26 03:36:03;;;;;;;16.55;3.55;;;15.50;99.90;;;;;;5051504;28;20045;-58
2023/09/26 03:38:30;;;;;;;13.35;3.45;;;15.40;99.90;;;;;;5048189;28;20049;-58
2023/09/26 03:40:58;;;;;;;17.80;4.22;;;15.50;99.90;;;;;;5055362;28;20045;-55
2023/09/26 03:43:26;;;;;;;18.13;3.97;;;15.40;99.90;;;;;;5058814;28;20052;-58
2023/09/26 03:45:54;;;;;;;24.48;4.40;;;15.40;99.90;;;;;;5055376;28;20043;-55
2023/09/26 03:48:21;;;;;;;15.82;3.83;;;15.50;99.90;;;;;;5060504;28;20073;-54
2023/09/26 03:50:49;;;;;;;23.92;5.47;;;15.40;99.90;;;;;;5047153;28;20103;-58
2023/09/26 03:53:16;;;;;;;17.17;4.97;;;15.50;99.90;;;;;;5065301;28;20041;-58
2023/09/26 03:55:43;;;;;;;20.10;4.97;;;15.50;99.90;;;;;;5050728;28;20597;-59
2023/09/26 03:58:09;;;;;;;19.45;3.83;;;15.50;99.90;;;;;;5047625;28;20578;-59
2023/09/26 04:00:36;;;;;;;16.73;3.85;;;15.50;99.90;;;;;;5053145;28;20048;-58
2023/09/26 04:03:03;;;;;;;18.83;5.88;;;15.50;99.90;;;;;;5048619;28;20094;-59
2023/09/26 04:05:30;;;;;;;14.73;3.70;;;15.50;99.90;;;;;;5053469;28;20048;-58
2023/09/26 04:07:57;;;;;;;15.52;4.65;;;15.50;99.90;;;;;;5063304;28;20052;-58
2023/09/26 04:10:24;;;;;;;17.48;4.70;;;15.50;99.90;;;;;;5062936;28;20444;-57
2023/09/26 04:12:50;;;;;;;21.00;4.25;;;15.50;99.90;;;;;;5054264;28;20057;-57
2023/09/26 04:15:17;;;;;;;13.82;4.20;;;15.60;99.90;;;;;;5051582;28;20052;-57
2023/09/26 04:17:45;;;;;;;20.65;4.50;;;15.60;99.90;;;;;;5057488;28;20052;-57
2023/09/26 04:20:12;;;;;;;15.82;4.35;;;15.60;99.90;;;;;;5064028;28;20044;-57
2023/09/26 04:22:56;;;;;;;21.45;5.13;;;15.60;99.90;;;;;;5048244;28;20055;-58
2023/09/26 04:25:23;;;;;;;18.48;4.07;;;15.60;99.90;;;;;;5046707;28;20430;-58
2023/09/26 04:27:50;;;;;;;13.73;4.32;;;15.70;99.90;;;;;;5057994;28;20059;-58
2023/09/26 04:30:17;;;;;;;15.65;4.13;;;15.70;99.90;;;;;;5030264;28;20421;-58
2023/09/26 04:32:44;;;;;;;18.38;4.88;;;15.70;99.90;;;;;;5058519;28;20103;-58
2023/09/26 04:35:11;;;;;;;18.38;4.38;;;15.70;99.90;;;;;;5050452;28;20492;-56
2023/09/26 04:37:37;;;;;;;12.00;3.75;;;15.70;99.90;;;;;;5063356;28;20049;-57
2023/09/26 04:40:11;;;;;;;13.40;3.83;;;15.70;99.90;;;;;;5052025;28;20053;-57
2023/09/26 04:42:39;;;;;;;;;;;15.70;99.90;;;;;;5049381;28;20081;-58
2023/09/26 04:45:06;;;;;;;14.25;3.47;;;15.80;99.90;;;;;;5062165;28;19921;-58
2023/09/26 04:47:34;;;;;;;14.38;4.28;;;15.80;99.90;;;;;;5045108;28;20071;-58
2023/09/26 04:50:01;;;;;;;12.10;3.55;;;15.80;99.90;;;;;;5051310;28;20099;-56
2023/09/26 04:52:27;;;;;;;16.15;3.47;;;15.90;99.90;;;;;;5060447;28;20097;-57
2023/09/26 04:54:55;;;;;;;10.65;3.70;;;15.90;99.90;;;;;;5053082;28;20057;-56
2023/09/26 04:57:21;;;;;;;12.13;4.55;;;15.90;99.90;;;;;;5058457;28;20487;-57
2023/09/26 04:59:48;;;;;;;12.10;3.30;;;16.00;99.90;;;;;;5055278;28;20098;-57
2023/09/26 05:02:15;;;;;;;14.63;3.63;;;16.00;99.90;;;;;;5052299;28;20368;-58
2023/09/26 05:04:42;;;;;;;13.30;3.30;;;16.10;99.90;;;;;;5068638;28;20053;-57
2023/09/26 05:07:09;;;;;;;13.75;4.45;;;16.10;99.90;;;;;;5065961;28;20675;-56
2023/09/26 05:09:39;;;;;;;17.70;3.90;;;16.20;99.90;;;;;;5056418;28;20534;-57
2023/09/26 05:12:06;;;;;;;17.83;4.38;;;16.10;99.90;;;;;;5058018;28;20128;-56
2023/09/26 05:14:33;;;;;;;14.15;3.40;;;16.20;99.90;;;;;;5060079;28;20052;-56
2023/09/26 05:17:00;;;;;;;9.07;3.10;;;16.20;99.90;;;;;;5051687;28;20118;-57
2023/09/26 05:19:26;;;;;;;16.02;4.07;;;16.30;99.90;;;;;;5058290;28;20111;-56
2023/09/26 05:21:53;;;;;;;11.32;3.92;;;16.30;99.90;;;;;;5068669;28;20500;-58
2023/09/26 05:24:22;;;;;;;15.00;3.28;;;16.30;99.90;;;;;;5060791;28;20059;-57
2023/09/26 05:26:52;;;;;;;15.65;4.20;;;16.40;99.90;;;;;;5050653;28;20136;-56
2023/09/26 05:29:19;;;;;;;11.50;3.13;;;16.40;99.90;;;;;;5058839;28;20040;-57
2023/09/26 05:31:46;;;;;;;11.13;3.47;;;16.40;99.90;;;;;;5062192;28;20507;-56
2023/09/26 05:34:13;;;;;;;13.55;3.60;;;16.40;99.90;;;;;;5064366;28;20055;-58
2023/09/26 05:36:40;;;;;;;10.63;3.40;;;16.40;99.90;;;;;;5030690;28;20060;-57
2023/09/26 05:39:07;;;;;;;12.13;4.15;;;16.40;99.90;;;;;;5056304;28;20545;-58
2023/09/26 05:41:34;;;;;;;13.27;4.05;;;16.40;99.90;;;;;;5050916;28;20045;-59
2023/09/26 05:44:01;;;;;;;12.98;3.83;;;16.50;99.90;;;;;;5054187;28;20048;-57
2023/09/26 05:46:27;;;;;;;10.18;4.53;;;16.50;99.90;;;;;;5049125;28;20516;-58
2023/09/26 05:48:54;;;;;;;9.48;3.78;;;16.50;99.90;;;;;;5053803;28;20484;-58
2023/09/26 05:51:21;;;;;;;11.25;4.00;;;16.50;99.90;;;;;;5064126;28;20044;-57
2023/09/26 05:53:48;;;;;;;12.75;3.30;;;16.60;99.90;;;;;;5065214;28;20083;-57
2023/09/26 05:56:15;;;;;;;10.70;3.25;;;16.60;99.90;;;;;;5057574;28;20111;-56
2023/09/26 05:58:42;;;;;;;10.82;3.38;;;16.60;99.90;;;;;;5052925;28;20052;-57
2023/09/26 06:01:09;;;;;;;17.00;4.93;;;16.60;99.90;;;;;;5043296;28;20488;-58
2023/09/26 06:03:36;;;;;;;15.27;4.57;;;16.60;99.90;;;;;;5036498;28;20048;-58
2023/09/26 06:06:06;;;;;;;13.32;4.10;;;16.70;99.90;;;;;;5042644;28;20052;-57
2023/09/26 06:08:34;;;;;;;11.35;4.90;;;16.70;99.90;;;;;;5049610;28;20565;-58
2023/09/26 06:11:02;;;;;;;10.07;3.88;;;16.70;99.90;;;;;;5051948;28;20053;-58
2023/09/26 06:13:29;;;;;;;15.60;5.53;;;16.70;99.90;;;;;;5046105;28;20435;-58
2023/09/26 06:15:56;;;;;;;16.40;4.60;;;16.80;99.90;;;;;;5049567;28;20044;-58
2023/09/26 06:18:23;;;;;;;14.65;5.65;;;16.80;99.90;;;;;;5044252;28;20067;-56
2023/09/26 06:20:50;;;;;;;15.60;5.20;;;16.80;99.90;;;;;;5053187;28;20060;-56
2023/09/26 06:23:17;;;;;;;12.15;5.18;;;16.80;99.90;;;;;;5045670;28;20087;-57
2023/09/26 06:25:44;;;;;;;18.50;5.95;;;16.90;99.90;;;;;;5043016;28;20417;-56
2023/09/26 06:28:22;;;;;;;10.60;4.78;;;16.90;99.90;;;;;;5032456;28;20059;-57
2023/09/26 06:30:49;;;;;;;10.30;5.30;;;16.90;99.90;;;;;;5034785;28;20205;-57
2023/09/26 06:33:16;;;;;;;13.32;5.70;;;16.90;99.90;;;;;;5055452;28;20475;-56
2023/09/26 06:35:43;;;;;;;14.25;6.00;;;16.90;99.90;;;;;;5053100;28;20045;-55
2023/09/26 06:38:11;;;;;;;11.45;5.65;;;17.00;99.90;;;;;;5050264;28;20145;-58
2023/09/26 06:40:39;;;;;;;18.13;5.93;;;17.00;99.90;;;;;;5041118;28;20048;-58
2023/09/26 06:43:06;;;;;;;11.95;5.53;;;17.00;99.90;;;;;;5044888;28;20152;-57
2023/09/26 06:45:37;;;;;;;13.73;5.95;;;17.00;99.90;;;;;;5020160;28;20057;-57
2023/09/26 06:48:05;;;;;;;19.67;7.70;;;17.10;99.90;;;;;;5036875;28;20510;-60
2023/09/26 06:50:32;;;;;;;9.63;5.47;;;17.10;99.90;;;;;;5043703;28;20052;-59
2023/09/26 06:52:59;;;;;;;15.80;6.18;;;17.10;99.90;;;;;;5028154;28;20051;-56
2023/09/26 06:55:26;;;;;;;11.38;5.78;;;17.10;99.90;;;;;;5046536;28;20044;-57
2023/09/26 06:57:53;;;;;;;15.65;6.47;;;17.20;99.90;;;;;;5050109;28;20049;-56
2023/09/26 07:00:20;;;;;;;14.13;6.95;;;17.20;99.90;;;;;;5047751;28;20114;-58
2023/09/26 07:02:47;;;;;;;13.77;6.30;;;17.30;99.90;;;;;;5042125;28;20662;-59
2023/09/26 07:05:14;;;;;;;17.02;6.20;;;17.30;99.90;;;;;;5047150;28;20044;-57
2023/09/26 07:07:41;;;;;;;11.82;5.82;;;17.40;99.90;;;;;;5015810;28;20454;-57
2023/09/26 07:10:10;;;;;;;13.88;5.78;;;17.40;99.90;;;;;;5036840;28;20060;-59
2023/09/26 07:12:37;;;;;;;21.48;6.32;;;17.50;99.90;;;;;;5044215;28;20056;-58
2023/09/26 07:15:05;;;;;;;12.05;5.53;;;17.50;99.90;;;;;;5034139;28;20045;-59
2023/09/26 07:17:32;;;;;;;13.38;5.90;;;17.50;99.90;;;;;;5052751;28;20102;-58
2023/09/26 07:20:01;;;;;;;11.88;5.75;;;17.60;99.90;;;;;;5032237;28;20156;-59
2023/09/26 07:22:27;;;;;;;12.55;4.93;;;17.70;99.90;;;;;;5023049;28;20049;-57
2023/09/26 07:24:57;;;;;;;15.32;5.25;;;17.70;99.90;;;;;;5043771;28;20106;-58
2023/09/26 07:27:24;;;;;;;14.57;5.55;;;17.80;99.90;;;;;;5042887;28;20452;-57
2023/09/26 07:29:52;;;;;;;11.60;4.97;;;17.80;99.90;;;;;;5044671;28;20049;-57
2023/09/26 07:32:19;;;;;;;12.38;5.07;;;17.80;99.90;;;;;;5041587;28;20049;-60
2023/09/26 07:34:46;;;;;;;13.68;5.30;;;17.90;99.90;;;;;;5053441;28;20056;-58
2023/09/26 07:37:13;;;;;;;11.45;5.75;;;17.90;99.90;;;;;;5029845;28;20048;-58
2023/09/26 07:39:45;;;;;;;12.20;5.47;;;18.00;99.90;;;;;;5050710;28;20052;-60
2023/09/26 07:42:11;;;;;;;15.23;5.10;;;18.00;99.90;;;;;;5055359;28;20049;-58
2023/09/26 07:44:39;;;;;;;15.63;5.28;;;18.10;99.90;;;;;;5040071;28;20462;-58
2023/09/26 07:47:06;;;;;;;16.25;5.30;;;18.10;99.90;;;;;;5042839;28;20041;-59
2023/09/26 07:49:32;;;;;;;13.95;4.60;;;18.10;99.90;;;;;;5044543;28;20040;-61
2023/09/26 07:51:59;;;;;;;8.88;4.00;;;18.20;99.90;;;;;;5036794;28;20491;-58
2023/09/26 07:54:26;;;;;;;10.40;4.68;;;18.30;99.90;;;;;;5056193;28;20049;-58
2023/09/26 07:56:53;;;;;;;9.95;4.13;;;18.30;99.90;;;;;;5040763;28;20040;-59
2023/09/26 07:59:21;;;;;;;14.45;4.32;;;18.40;99.90;;;;;;5024762;28;20517;-59
2023/09/26 08:01:48;;;;;;;9.88;4.40;;;18.40;99.90;;;;;;5052569;28;20155;-59
2023/09/26 08:04:15;;;;;;;13.15;3.60;;;18.50;99.90;;;;;;5023241;28;20080;-60
2023/09/26 08:06:42;;;;;;;8.50;3.47;;;18.50;99.90;;;;;;5030743;28;20045;-58
2023/09/26 08:09:10;;;;;;;8.95;3.78;;;18.60;99.90;;;;;;5045928;28;20084;-59
2023/09/26 08:11:38;;;;;;;10.80;3.75;;;18.60;99.90;;;;;;5048355;28;20105;-59
2023/09/26 08:14:05;;;;;;;12.68;4.35;;;18.70;99.90;;;;;;5030065;28;20049;-58
2023/09/26 08:16:32;;;;;;;12.55;3.70;;;18.80;99.90;;;;;;5050708;28;20416;-60
2023/09/26 08:18:59;;;;;;;8.02;4.05;;;18.90;99.90;;;;;;5041570;28;20051;-58
2023/09/26 08:21:26;;;;;;;11.38;3.97;;;18.90;99.90;;;;;;5047077;28;20099;-59
2023/09/26 08:23:54;;;;;;;9.00;4.03;;;19.00;99.90;;;;;;5042085;28;20047;-58
2023/09/26 08:26:21;;;;;;;6.40;2.90;;;19.00;99.90;;;;;;5018153;28;20053;-58
2023/09/26 08:28:47;;;;;;;9.25;3.97;;;19.00;99.90;;;;;;5043642;28;20579;-57
2023/09/26 08:31:15;;;;;;;8.13;3.83;;;19.00;99.90;;;;;;5052651;28;20048;-59
2023/09/26 08:33:46;;;;;;;8.18;3.33;;;19.00;99.90;;;;;;5029996;28;20644;-59
2023/09/26 08:36:17;;;;;;;8.55;3.90;;;19.00;99.90;;;;;;5032736;28;20073;-59
2023/09/26 08:38:44;;;;;;;8.65;3.47;;;18.90;99.90;;;;;;5033736;28;20045;-59
2023/09/26 08:41:11;;;;;;;10.45;3.65;;;19.00;99.90;;;;;;5035819;28;20049;-58
2023/09/26 08:43:38;;;;;;;12.43;4.55;;;19.00;99.90;;;;;;5029614;28;20051;-58
2023/09/26 08:46:05;;;;;;;13.02;3.72;;;19.10;99.90;;;;;;5041224;28;20253;-59
2023/09/26 08:48:33;;;;;;;13.90;4.38;;;19.20;99.90;;;;;;5039895;28;20042;-57
2023/09/26 08:51:00;;;;;;;16.10;4.00;;;19.30;99.90;;;;;;5058232;28;20049;-58
2023/09/26 08:53:28;;;;;;;9.45;3.65;;;19.40;99.90;;;;;;5046773;28;20137;-58
2023/09/26 08:55:54;;;;;;;11.95;4.05;;;19.40;99.90;;;;;;5056261;28;20045;-58
2023/09/26 08:58:21;;;;;;;10.93;3.05;;;19.50;99.90;;;;;;5013918;28;20041;-58
2023/09/26 09:00:50;;;;;;;11.57;3.72;;;19.60;99.90;;;;;;5050270;28;20073;-59
2023/09/26 09:03:17;;;;;;;6.60;2.70;;;19.60;99.90;;;;;;5054388;28;20045;-57
2023/09/26 09:05:44;;;;;;;15.48;3.90;;;19.60;99.90;;;;;;5038304;28;20510;-58
2023/09/26 09:08:20;;;;;;;9.35;3.38;;;19.60;99.90;;;;;;5030021;28;20045;-56
2023/09/26 09:10:55;;;;;;;14.63;3.58;;;19.60;99.90;;;;;;5043223;28;20103;-57
2023/09/26 09:13:29;;;;;;;4.95;2.72;;;19.70;99.90;;;;;;5036244;28;20050;-58
2023/09/26 09:16:08;;;;;;;;;;;20.00;99.90;;;;;;5044291;28;20045;-59
2023/09/26 09:18:42;;;;;;;14.13;4.07;;;20.40;99.90;;;;;;5047966;28;19947;-59
2023/09/26 09:21:25;;;;;;;8.95;3.60;;;20.80;99.90;;;;;;5040690;28;20041;-59
2023/09/26 09:23:52;;;;;;;10.43;3.20;;;21.10;99.90;;;;;;5040403;28;20049;-58
2023/09/26 09:26:20;;;;;;;7.38;3.05;;;21.00;99.90;;;;;;5050813;28;20040;-59
2023/09/26 09:28:48;;;;;;;9.95;4.35;;;20.90;99.90;;;;;;5020966;28;20061;-59
2023/09/26 09:31:16;;;;;;;11.32;3.53;;;20.70;99.90;;;;;;5037348;28;20360;-57
2023/09/26 09:33:46;;;;;;;10.45;4.00;;;20.60;99.90;;;;;;5044093;28;20484;-57
2023/09/26 09:36:13;;;;;;;10.32;3.67;;;20.60;99.90;;;;;;5054431;28;20059;-60
2023/09/26 09:38:40;;;;;;;9.73;3.33;;;20.60;99.90;;;;;;5050992;28;20067;-57
2023/09/26 09:41:08;;;;;;;11.27;4.05;;;20.60;99.90;;;;;;5042787;28;20049;-59
2023/09/26 09:43:35;;;;;;;11.68;5.05;;;20.70;99.90;;;;;;5044471;28;20045;-57
2023/09/26 09:46:08;;;;;;;10.40;4.28;;;20.70;99.90;;;;;;5045348;28;20053;-60
2023/09/26 09:48:43;;;;;;;13.93;4.23;;;20.80;99.90;;;;;;5040452;28;20646;-59
2023/09/26 09:51:13;;;;;;;11.43;3.55;;;20.90;99.90;;;;;;5034123;28;20491;-57
2023/09/26 09:53:48;;;;;;;11.55;3.80;;;21.00;99.90;;;;;;5061284;28;20210;-59
2023/09/26 09:56:18;;;;;;;8.60;2.95;;;21.10;99.90;;;;;;5032773;28;20057;-58
2023/09/26 09:58:49;;;;;;;8.55;2.70;;;21.10;99.90;;;;;;5061511;28;20049;-58
2023/09/26 10:01:18;;;;;;;8.20;2.83;;;21.10;99.90;;;;;;5058537;28;20044;-58
2023/09/26 10:03:47;;;;;;;6.13;2.13;;;21.10;99.90;;;;;;5068491;28;20045;-59
2023/09/26 10:06:14;;;;;;;6.97;2.63;;;21.20;99.90;;;;;;5069537;28;20044;-58
2023/09/26 10:08:41;;;;;;;7.75;2.63;;;21.20;99.90;;;;;;5056259;28;20044;-58
2023/09/26 10:11:09;;;;;;;6.75;2.47;;;21.20;99.90;;;;;;5051946;28;20106;-58
2023/09/26 10:13:36;;;;;;;13.63;3.55;;;21.20;99.90;;;;;;5036906;28;20496;-59
2023/09/26 10:16:11;;;;;;;16.90;3.55;;;21.20;99.90;;;;;;5069732;28;20122;-59
2023/09/26 10:18:43;;;;;;;9.95;3.13;;;21.20;99.90;;;;;;5063780;28;20105;-58
2023/09/26 10:21:23;;;;;;;11.23;2.90;;;21.10;99.90;;;;;;5049523;28;20049;-57
2023/09/26 10:24:06;;;;;;;6.68;2.67;;;21.10;99.90;;;;;;5061942;28;20055;-58
2023/09/26 10:26:33;;;;;;;8.40;2.50;;;21.10;99.90;;;;;;5049389;28;20095;-58
2023/09/26 10:29:06;;;;;;;11.10;2.50;;;21.10;99.90;;;;;;5054041;28;20069;-59
2023/09/26 10:31:33;;;;;;;10.55;2.65;;;21.20;99.90;;;;;;5052226;28;20053;-59
2023/09/26 10:34:01;;;;;;;7.85;2.60;;;21.30;99.90;;;;;;5036809;28;20040;-58
2023/09/26 10:36:29;;;;;;;10.43;2.75;;;21.40;99.90;;;;;;5046996;28;20056;-59
2023/09/26 10:39:00;;;;;;;9.40;2.58;;;21.40;99.90;;;;;;5059121;28;20086;-59
2023/09/26 10:41:27;;;;;;;9.48;2.70;;;21.30;99.90;;;;;;5036774;28;20504;-59
2023/09/26 10:43:54;;;;;;;8.85;3.20;;;21.30;99.90;;;;;;5032648;28;20496;-59
2023/09/26 10:46:28;;;;;;;13.30;5.68;;;21.30;99.90;;;;;;5049053;28;20491;-59
2023/09/26 10:48:59;;;;;;;10.05;3.20;;;21.30;99.90;;;;;;5064529;28;20047;-60
2023/09/26 10:51:26;;;;;;;9.93;3.15;;;21.40;99.90;;;;;;5053475;28;20057;-59
2023/09/26 10:53:53;;;;;;;12.88;5.15;;;21.40;99.90;;;;;;5029233;28;20086;-59
2023/09/26 10:56:20;;;;;;;9.35;3.58;;;21.50;99.90;;;;;;5061856;28;20055;-58
2023/09/26 10:58:47;;;;;;;9.63;2.88;;;21.70;99.90;;;;;;5065104;28;20053;-57
2023/09/26 11:01:14;;;;;;;7.43;3.35;;;21.70;99.90;;;;;;5041598;28;20054;-58
2023/09/26 11:03:41;;;;;;;8.43;2.50;;;21.80;99.90;;;;;;5048862;28;20526;-58
2023/09/26 11:06:08;;;;;;;9.05;2.97;;;21.80;99.90;;;;;;5057543;28;20537;-59
2023/09/26 11:08:36;;;;;;;6.60;2.42;;;21.80;99.90;;;;;;5046804;28;20491;-58
2023/09/26 11:11:03;;;;;;;14.55;4.38;;;21.80;99.90;;;;;;5041323;28;20040;-58
2023/09/26 11:13:30;;;;;;;11.55;4.43;;;21.90;99.90;;;;;;5045621;28;20099;-59
2023/09/26 11:15:57;;;;;;;7.82;3.67;;;21.90;99.90;;;;;;5044825;28;20570;-58
2023/09/26 11:18:24;;;;;;;10.45;2.30;;;22.00;99.90;;;;;;5048691;28;20081;-59
2023/09/26 11:20:51;;;;;;;8.98;2.30;;;22.10;99.90;;;;;;5053984;28;20053;-60
2023/09/26 11:23:39;;;;;;;15.20;5.38;;;22.10;99.90;;;;;;5068303;28;20045;-60
2023/09/26 11:26:07;;;;;;;7.10;3.10;;;22.10;99.90;;;;;;5055067;28;20041;-59
2023/09/26 11:28:34;;;;;;;8.40;3.13;;;22.30;99.90;;;;;;5067963;28;20443;-62
2023/09/26 11:31:01;;;;;;;6.30;2.17;;;22.40;99.90;;;;;;5020737;28;20063;-59
2023/09/26 11:33:28;;;;;;;5.95;2.00;;;22.50;99.90;;;;;;5066969;28;20044;-57
2023/09/26 11:35:55;;;;;;;4.25;1.83;;;22.60;99.90;;;;;;5056909;28;20045;-61
2023/09/26 11:38:22;;;;;;;7.55;1.95;;;22.70;99.90;;;;;;5066825;28;20098;-59
2023/09/26 11:40:49;;;;;;;6.47;1.70;;;22.70;99.90;;;;;;5062115;28;20056;-59
2023/09/26 11:43:16;;;;;;;8.20;1.80;;;22.90;99.90;;;;;;5052877;28;20041;-59
2023/09/26 11:45:42;;;;;;;9.10;2.67;;;22.80;99.90;;;;;;5051859;28;20053;-59
2023/09/26 11:48:10;;;;;;;5.00;1.55;;;22.90;99.90;;;;;;5061732;28;20048;-60
2023/09/26 11:50:39;;;;;;;8.50;2.40;;;23.00;99.90;;;;;;5056703;28;20079;-59
2023/09/26 11:53:06;;;;;;;6.57;1.92;;;23.00;99.90;;;;;;5047821;28;20056;-60
2023/09/26 11:55:35;;;;;;;7.03;2.22;;;23.10;99.90;;;;;;5062908;28;20067;-60
2023/09/26 11:58:02;;;;;;;7.30;1.88;;;23.10;99.90;;;;;;5057487;28;20044;-59
2023/09/26 12:00:29;;;;;;;8.02;2.30;;;23.10;99.90;;;;;;5055771;28;20076;-59
2023/09/26 12:02:57;;;;;;;7.57;2.10;;;23.00;99.90;;;;;;5043155;28;20063;-60
2023/09/26 12:05:24;;;;;;;8.27;2.30;;;23.10;99.90;;;;;;5049175;28;20060;-58
2023/09/26 12:07:51;;;;;;;4.13;1.80;;;22.90;99.90;;;;;;5053154;28;20048;-58
2023/09/26 12:10:19;;;;;;;6.45;1.88;;;22.90;99.90;;;;;;5045900;28;20040;-59
2023/09/26 12:12:46;;;;;;;7.75;1.75;;;23.00;99.90;;;;;;5059097;28;20492;-59
2023/09/26 12:15:20;;;;;;;5.97;2.28;;;23.20;99.90;;;;;;5044165;28;20049;-59
2023/09/26 12:17:53;;;;;;;4.97;2.10;;;23.20;99.90;;;;;;5045054;28;21675;-59
2023/09/26 12:20:21;;;;;;;;;;;23.10;99.90;;;;;;5045383;28;20485;-58
2023/09/26 12:22:49;;;;;;;6.38;1.75;;;23.20;99.90;;;;;;5052439;28;19925;-59
2023/09/26 12:25:17;;;;;;;10.65;2.28;;;23.20;99.90;;;;;;5047306;28;20056;-58
2023/09/26 12:27:44;;;;;;;4.88;2.08;;;23.20;99.90;;;;;;5053809;28;20123;-58
2023/09/26 12:30:12;;;;;;;4.13;1.58;;;23.10;99.90;;;;;;5047714;28;20048;-59
2023/09/26 12:32:40;;;;;;;3.88;2.05;;;23.20;99.90;;;;;;5050126;28;20472;-58
2023/09/26 12:35:07;;;;;;;11.52;2.28;;;23.30;99.90;;;;;;5046941;28;20442;-58
2023/09/26 12:37:36;;;;;;;3.88;1.77;;;23.30;99.90;;;;;;5062980;28;20044;-59
2023/09/26 12:40:09;;;;;;;6.70;2.05;;;23.20;99.90;;;;;;5034958;28;20056;-59
2023/09/26 12:42:36;;;;;;;8.25;2.42;;;23.30;99.90;;;;;;5056462;28;20048;-60
2023/09/26 12:45:03;;;;;;;5.43;1.67;;;23.30;99.90;;;;;;5027391;28;20444;-59